Ashkum, Illinois
Current Conditions -  °F | °C
As of 8:15 AM on Friday 24 Oct 2014 (Local Time) from KIKK Reporting Station
Overcast Overcast  
Wind Chill: 47°   Ceiling: 3300
Heat Index: 47°   Visibility: 7mi
Dew Point: 46°   Wind: 0mph
Humidity: 93%   Direction: NA
Pressure: 30.09"   Gusts: NA
Location:  40.88°N, 87.96°W
Report Text: KIKK 241315Z AUTO 00000KT 7SM OVC033 09/08 A3009 RMK AO2 T00860076
Loading
Personal Weather Stations






























Interactive Weather Map
Tropical Storm Tracking
New forecast layout! Learn more

10-Day Weather Forecast

Advertisements
Track Severe Weather on mobile